Time;durP1;ratioP1;P1;durP2;ratioP2;P2;SDS_P1;SDS_P2;PMS_P1;PMS_P2;Temp;Humidity;BMP_temperature;BMP_pressure;BME280_temperature;BME280_humidity;BME280_pressure;Samples;Min_cycle;Max_cycle;Signal;HPM_P1;HPM_P2
2021/10/31 00:01:13;;;;;;;7.97;5.05;;;10.90;83.90;;;;;;4966502;28;20535;-89
2021/10/31 00:03:40;;;;;;;7.30;5.35;;;10.90;83.90;;;;;;4969112;28;20050;-88
2021/10/31 00:06:07;;;;;;;11.35;5.85;;;10.90;83.90;;;;;;4970241;28;20059;-88
2021/10/31 00:08:35;;;;;;;10.25;5.63;;;10.90;84.00;;;;;;4967207;28;20055;-87
2021/10/31 00:11:02;;;;;;;11.60;5.78;;;10.90;84.00;;;;;;4965440;28;20055;-87
2021/10/31 00:13:30;;;;;;;9.32;5.95;;;10.90;84.00;;;;;;4967591;28;20078;-89
2021/10/31 00:15:57;;;;;;;8.32;6.00;;;10.90;84.00;;;;;;4967465;28;20436;-89
2021/10/31 00:18:25;;;;;;;10.48;6.38;;;10.90;84.00;;;;;;4970286;28;20051;-88
2021/10/31 00:20:52;;;;;;;8.02;6.07;;;10.90;84.10;;;;;;4970098;28;20047;-88
2021/10/31 00:23:19;;;;;;;9.18;5.88;;;10.90;84.10;;;;;;4953947;28;20058;-89
2021/10/31 00:25:46;;;;;;;8.60;6.00;;;10.90;84.10;;;;;;4963870;28;20066;-87
2021/10/31 00:28:13;;;;;;;10.80;6.25;;;10.90;84.10;;;;;;4966076;28;20058;-87
2021/10/31 00:30:40;;;;;;;9.68;6.55;;;10.90;84.10;;;;;;4968516;28;20079;-87
2021/10/31 00:33:08;;;;;;;7.43;6.10;;;10.90;84.20;;;;;;4970206;28;20138;-88
2021/10/31 00:35:35;;;;;;;8.85;5.97;;;10.80;84.20;;;;;;4968977;28;20062;-88
2021/10/31 00:38:03;;;;;;;9.55;6.80;;;10.80;84.20;;;;;;4967002;28;20050;-87
2021/10/31 00:40:32;;;;;;;8.63;6.45;;;10.80;84.20;;;;;;4966723;28;20401;-87
2021/10/31 00:42:59;;;;;;;8.43;6.30;;;10.80;84.20;;;;;;4966940;28;20051;-87
2021/10/31 00:45:26;;;;;;;11.02;6.65;;;10.80;84.30;;;;;;4968341;28;20078;-88
2021/10/31 00:47:54;;;;;;;13.32;6.93;;;10.80;84.30;;;;;;4969337;28;20401;-88
2021/10/31 00:50:22;;;;;;;9.00;5.75;;;10.80;84.30;;;;;;4967815;28;20051;-89
2021/10/31 00:52:51;;;;;;;11.65;5.93;;;10.80;84.30;;;;;;4966729;28;20242;-88
2021/10/31 00:55:18;;;;;;;9.88;6.63;;;10.70;84.30;;;;;;4966590;28;20047;-88
2021/10/31 00:57:46;;;;;;;10.80;6.97;;;10.80;84.30;;;;;;4964794;28;20102;-89
2021/10/31 01:00:14;;;;;;;13.23;6.80;;;10.80;84.30;;;;;;4970880;28;20126;-88
2021/10/31 01:02:41;;;;;;;10.57;6.25;;;10.70;84.30;;;;;;4968074;28;20042;-88
2021/10/31 01:05:12;;;;;;;9.18;6.35;;;10.70;84.30;;;;;;4964848;28;20066;-89
2021/10/31 01:08:14;;;;;;;10.98;6.43;;;10.70;84.40;;;;;;4965097;28;20578;-88
2021/10/31 01:11:00;;;;;;;9.15;6.57;;;10.70;84.40;;;;;;4966376;28;20134;-88
2021/10/31 01:14:01;;;;;;;10.30;6.35;;;10.70;84.40;;;;;;4966320;28;20089;-87
2021/10/31 01:16:37;;;;;;;9.35;6.47;;;10.70;84.40;;;;;;4966221;28;20050;-86
2021/10/31 01:19:34;;;;;;;9.30;6.18;;;10.70;84.40;;;;;;4968014;28;20053;-86
2021/10/31 01:22:22;;;;;;;12.32;6.50;;;10.60;84.40;;;;;;4955365;28;20098;-86
2021/10/31 01:25:22;;;;;;;11.05;6.78;;;10.70;84.50;;;;;;4967289;28;20048;-90
2021/10/31 01:28:11;;;;;;;12.13;6.15;;;10.70;84.50;;;;;;4955355;28;20058;-88
2021/10/31 01:31:02;;;;;;;8.35;5.93;;;10.60;84.50;;;;;;4967916;28;20051;-88
2021/10/31 01:34:07;;;;;;;9.30;6.03;;;10.60;84.50;;;;;;4955211;28;20047;-88
2021/10/31 01:36:47;;;;;;;12.05;6.45;;;10.60;84.50;;;;;;4955219;28;20058;-88
2021/10/31 01:39:21;;;;;;;11.23;6.70;;;10.60;84.50;;;;;;4970396;28;20055;-87
2021/10/31 01:42:03;;;;;;;8.80;6.72;;;10.60;84.60;;;;;;4968659;28;20466;-88
2021/10/31 01:44:32;;;;;;;9.70;5.95;;;10.60;84.60;;;;;;4956987;28;20047;-89
2021/10/31 01:47:15;;;;;;;8.85;6.18;;;10.60;84.60;;;;;;4963975;28;20058;-88
2021/10/31 01:49:55;;;;;;;10.32;6.18;;;10.60;84.60;;;;;;4966149;28;20051;-87
2021/10/31 01:52:32;;;;;;;10.05;6.60;;;10.50;84.60;;;;;;4970116;28;20055;-88
2021/10/31 01:55:05;;;;;;;9.23;6.47;;;10.60;84.60;;;;;;4965904;28;20046;-88
2021/10/31 01:57:36;;;;;;;11.55;6.25;;;10.60;84.70;;;;;;4968385;28;20117;-87
2021/10/31 02:00:09;;;;;;;9.55;6.15;;;10.60;84.70;;;;;;4968652;28;20059;-87
2021/10/31 02:02:40;;;;;;;11.45;6.65;;;10.60;84.70;;;;;;4967725;28;20074;-86
2021/10/31 02:05:09;;;;;;;9.75;6.93;;;10.60;84.70;;;;;;4964317;28;20507;-87
2021/10/31 02:07:39;;;;;;;10.13;6.95;;;10.60;84.70;;;;;;4965864;28;20535;-86
2021/10/31 02:10:08;;;;;;;10.18;6.38;;;10.60;84.70;;;;;;4965826;28;20094;-86
2021/10/31 02:12:37;;;;;;;13.18;6.75;;;10.60;84.70;;;;;;4967560;28;20730;-87
2021/10/31 02:15:05;;;;;;;10.35;7.10;;;10.60;84.80;;;;;;4968325;28;20105;-87
2021/10/31 02:17:33;;;;;;;7.95;6.43;;;10.50;84.80;;;;;;4967612;28;20057;-86
2021/10/31 02:20:00;;;;;;;10.23;7.32;;;10.60;84.80;;;;;;4965791;28;20058;-87
2021/10/31 02:22:29;;;;;;;12.23;7.13;;;10.60;84.80;;;;;;4965354;28;20046;-86
2021/10/31 02:24:59;;;;;;;13.27;7.65;;;10.60;84.80;;;;;;4965773;28;20054;-86
2021/10/31 02:27:31;;;;;;;9.65;7.30;;;10.60;84.80;;;;;;4968836;28;20051;-86
2021/10/31 02:30:00;;;;;;;12.65;7.55;;;10.60;84.90;;;;;;4970615;28;20445;-87
2021/10/31 02:32:29;;;;;;;15.40;8.10;;;10.60;84.90;;;;;;4960190;28;20118;-87
2021/10/31 02:34:58;;;;;;;13.80;7.85;;;10.60;84.90;;;;;;4965709;28;20051;-87
2021/10/31 02:37:25;;;;;;;16.40;7.95;;;10.60;84.90;;;;;;4969266;28;20046;-86
2021/10/31 02:39:54;;;;;;;11.02;8.65;;;10.60;84.90;;;;;;4969115;28;20054;-87
2021/10/31 02:42:21;;;;;;;12.38;8.88;;;10.60;85.00;;;;;;4972143;28;20051;-87
2021/10/31 02:44:48;;;;;;;11.40;9.07;;;10.60;85.00;;;;;;4970877;28;20661;-87
2021/10/31 02:47:27;;;;;;;11.10;8.35;;;10.60;85.00;;;;;;4968067;28;20117;-86
2021/10/31 02:49:56;;;;;;;14.07;9.48;;;10.60;85.00;;;;;;4969013;28;20059;-86
2021/10/31 02:52:36;;;;;;;14.13;9.25;;;10.60;85.00;;;;;;4968819;28;20081;-87
2021/10/31 02:55:34;;;;;;;12.10;8.95;;;10.60;85.10;;;;;;4968779;28;20051;-86
2021/10/31 02:58:12;;;;;;;12.60;9.27;;;10.60;85.10;;;;;;4969659;28;20106;-87
2021/10/31 03:00:39;;;;;;;12.75;10.20;;;10.60;85.10;;;;;;4956150;28;20484;-87
2021/10/31 03:03:08;;;;;;;13.27;10.15;;;10.60;85.10;;;;;;4970490;28;20491;-88
2021/10/31 03:05:35;;;;;;;13.77;9.57;;;10.60;85.10;;;;;;4942088;29;20059;-88
2021/10/31 03:08:02;;;;;;;14.73;9.60;;;10.60;85.20;;;;;;4960386;28;20492;-88
2021/10/31 03:10:29;;;;;;;13.38;10.23;;;10.60;85.20;;;;;;4960346;28;20051;-88
2021/10/31 03:12:56;;;;;;;12.80;9.18;;;10.70;85.20;;;;;;4958532;28;20062;-87
2021/10/31 03:15:25;;;;;;;14.38;10.18;;;10.70;85.20;;;;;;4957051;28;20077;-87
2021/10/31 03:17:51;;;;;;;13.95;10.15;;;10.70;85.20;;;;;;4955930;28;20062;-87
2021/10/31 03:20:18;;;;;;;14.88;11.10;;;10.60;85.20;;;;;;4967634;28;20078;-87
2021/10/31 03:22:45;;;;;;;16.85;11.00;;;10.70;85.20;;;;;;4963489;28;20069;-87
2021/10/31 03:25:12;;;;;;;13.68;10.70;;;10.70;85.20;;;;;;4963474;28;20051;-87
2021/10/31 03:27:39;;;;;;;15.73;10.68;;;10.70;85.20;;;;;;4967707;28;20512;-87
2021/10/31 03:30:06;;;;;;;15.65;10.80;;;10.70;85.20;;;;;;4953893;28;20058;-87
2021/10/31 03:32:33;;;;;;;15.40;11.80;;;10.70;85.20;;;;;;4941669;28;20571;-86
2021/10/31 03:35:00;;;;;;;13.85;10.73;;;10.70;85.20;;;;;;4969571;28;20050;-85
2021/10/31 03:37:27;;;;;;;14.43;11.32;;;10.70;85.20;;;;;;4968131;28;20042;-87
2021/10/31 03:39:54;;;;;;;19.65;11.07;;;10.60;85.20;;;;;;4966139;28;20051;-86
2021/10/31 03:42:22;;;;;;;16.65;11.55;;;10.70;85.20;;;;;;4970094;28;20057;-86
2021/10/31 03:44:50;;;;;;;16.42;12.52;;;10.70;85.20;;;;;;4970126;28;20530;-86
2021/10/31 03:47:19;;;;;;;17.08;12.43;;;10.70;85.30;;;;;;4968384;28;20050;-87
2021/10/31 03:49:46;;;;;;;17.15;12.95;;;10.70;85.30;;;;;;4967996;28;20059;-86
2021/10/31 03:52:13;;;;;;;17.55;12.73;;;10.70;85.30;;;;;;4966682;28;20050;-86
2021/10/31 03:54:40;;;;;;;15.85;12.88;;;10.70;85.30;;;;;;4968148;28;20055;-87
2021/10/31 03:57:07;;;;;;;18.50;14.90;;;10.70;85.30;;;;;;4970941;28;20057;-87
2021/10/31 03:59:35;;;;;;;18.60;13.95;;;10.70;85.30;;;;;;4959912;28;20062;-88
2021/10/31 04:02:03;;;;;;;22.58;15.45;;;10.70;85.30;;;;;;4966907;28;20047;-87
2021/10/31 04:04:31;;;;;;;20.50;15.35;;;10.70;85.30;;;;;;4967723;28;20070;-87
2021/10/31 04:06:58;;;;;;;20.30;16.02;;;10.70;85.30;;;;;;4967802;28;20047;-87
2021/10/31 04:09:25;;;;;;;21.13;16.27;;;10.70;85.30;;;;;;4970740;28;20051;-87
2021/10/31 04:11:52;;;;;;;23.00;17.23;;;10.70;85.30;;;;;;4969777;28;20097;-87
2021/10/31 04:14:19;;;;;;;24.75;18.70;;;10.70;85.30;;;;;;4960469;28;20102;-86
2021/10/31 04:16:46;;;;;;;25.92;19.00;;;10.70;85.30;;;;;;4962578;28;20051;-88
2021/10/31 04:19:18;;;;;;;27.17;20.48;;;10.70;85.30;;;;;;4967194;28;20079;-87
2021/10/31 04:21:45;;;;;;;28.73;22.02;;;10.70;85.30;;;;;;4955115;28;20043;-86
2021/10/31 04:24:12;;;;;;;27.33;22.35;;;10.70;85.30;;;;;;4971156;28;20527;-87
2021/10/31 04:26:38;;;;;;;26.58;20.92;;;10.70;85.40;;;;;;4968289;28;20439;-87
2021/10/31 04:29:05;;;;;;;29.92;22.85;;;10.70;85.40;;;;;;4967250;28;20129;-86
2021/10/31 04:31:32;;;;;;;30.38;22.67;;;10.70;85.30;;;;;;4966989;28;20043;-87
2021/10/31 04:33:59;;;;;;;34.25;24.63;;;10.70;85.40;;;;;;4966055;28;20043;-88
2021/10/31 04:36:26;;;;;;;30.38;23.67;;;10.70;85.40;;;;;;4967988;28;20464;-86
2021/10/31 04:38:55;;;;;;;32.35;25.08;;;10.70;85.40;;;;;;4969509;28;20054;-89
2021/10/31 04:41:28;;;;;;;31.65;24.13;;;10.70;85.40;;;;;;4966195;28;20058;-87
2021/10/31 04:43:55;;;;;;;33.03;24.23;;;10.70;85.40;;;;;;4966728;28;20057;-88
2021/10/31 04:46:22;;;;;;;32.80;23.77;;;10.70;85.40;;;;;;4967092;28;20105;-88
2021/10/31 04:48:49;;;;;;;33.70;24.35;;;10.70;85.40;;;;;;4966928;28;20134;-88
2021/10/31 04:51:16;;;;;;;32.38;24.88;;;10.70;85.40;;;;;;4971116;28;20050;-88
2021/10/31 04:53:43;;;;;;;31.05;24.85;;;10.70;85.50;;;;;;4968142;28;20109;-89
2021/10/31 04:56:10;;;;;;;31.77;25.50;;;10.70;85.50;;;;;;4966567;28;20054;-87
2021/10/31 04:58:37;;;;;;;30.50;24.00;;;10.60;85.50;;;;;;4965041;28;20393;-88
2021/10/31 05:01:04;;;;;;;33.28;23.55;;;10.60;85.50;;;;;;4956548;28;20495;-88
2021/10/31 05:03:32;;;;;;;31.90;24.38;;;10.60;85.50;;;;;;4969065;28;20086;-88
2021/10/31 05:05:59;;;;;;;32.00;23.52;;;10.60;85.50;;;;;;4969337;28;20054;-89
2021/10/31 05:08:26;;;;;;;30.88;23.92;;;10.70;85.60;;;;;;4966089;28;20133;-88
2021/10/31 05:10:53;;;;;;;31.50;23.73;;;10.60;85.60;;;;;;4966625;28;20105;-87
2021/10/31 05:13:20;;;;;;;27.63;23.27;;;10.60;85.60;;;;;;4966505;28;20427;-88
2021/10/31 05:15:47;;;;;;;28.02;22.77;;;10.60;85.60;;;;;;4966835;28;20058;-87
2021/10/31 05:18:14;;;;;;;28.30;22.98;;;10.70;85.60;;;;;;4955680;28;20101;-87
2021/10/31 05:20:41;;;;;;;28.35;22.60;;;10.60;85.60;;;;;;4953302;28;20055;-88
2021/10/31 05:23:08;;;;;;;26.58;22.63;;;10.70;85.70;;;;;;4964143;28;20046;-87
2021/10/31 05:25:35;;;;;;;30.40;21.55;;;10.70;85.70;;;;;;4966456;28;20412;-89
2021/10/31 05:28:02;;;;;;;26.00;21.23;;;10.70;85.70;;;;;;4964247;28;20495;-87
2021/10/31 05:30:29;;;;;;;27.35;19.70;;;10.70;85.70;;;;;;4968784;28;20068;-88
2021/10/31 05:32:56;;;;;;;24.30;19.73;;;10.60;85.70;;;;;;4968906;28;20101;-88
2021/10/31 05:35:23;;;;;;;22.98;18.10;;;10.60;85.70;;;;;;4967560;28;20050;-87
2021/10/31 05:37:57;;;;;;;22.55;18.13;;;10.60;85.70;;;;;;4963588;28;20050;-89
2021/10/31 05:40:25;;;;;;;29.63;18.17;;;10.70;85.70;;;;;;4961512;28;20452;-85
2021/10/31 05:42:53;;;;;;;21.08;18.08;;;10.70;85.70;;;;;;4954275;28;20046;-86
2021/10/31 05:45:20;;;;;;;20.27;17.05;;;10.70;85.70;;;;;;4970011;28;20043;-88
2021/10/31 05:47:50;;;;;;;19.92;16.70;;;10.70;85.70;;;;;;4968277;28;20074;-88
2021/10/31 05:50:18;;;;;;;23.10;17.40;;;10.60;85.70;;;;;;4965551;28;20055;-89
2021/10/31 05:52:45;;;;;;;19.80;16.13;;;10.60;85.70;;;;;;4965640;28;20046;-88
2021/10/31 05:55:15;;;;;;;22.25;17.02;;;10.70;85.70;;;;;;4964623;28;20054;-88
2021/10/31 05:57:42;;;;;;;22.63;15.98;;;10.60;85.70;;;;;;4965655;28;20043;-87
2021/10/31 06:00:12;;;;;;;17.00;15.23;;;10.60;85.70;;;;;;4970998;28;20050;-87
2021/10/31 06:02:39;;;;;;;17.60;14.68;;;10.60;85.70;;;;;;4967909;28;20051;-87
2021/10/31 06:05:08;;;;;;;19.42;15.63;;;10.60;85.70;;;;;;4969166;28;20137;-87
2021/10/31 06:07:35;;;;;;;17.88;14.15;;;10.60;85.70;;;;;;4969711;28;20478;-87
2021/10/31 06:10:03;;;;;;;17.23;14.63;;;10.60;85.70;;;;;;4974099;28;20046;-87
2021/10/31 06:12:30;;;;;;;20.77;13.35;;;10.60;85.70;;;;;;4971126;28;20051;-87
2021/10/31 06:14:57;;;;;;;15.57;13.80;;;10.60;85.70;;;;;;4972307;28;20061;-88
2021/10/31 06:17:24;;;;;;;15.00;12.85;;;10.60;85.70;;;;;;4971199;28;20047;-88
2021/10/31 06:19:51;;;;;;;16.60;13.25;;;10.60;85.70;;;;;;4969602;28;20065;-87
2021/10/31 06:22:18;;;;;;;17.23;13.57;;;10.60;85.70;;;;;;4969277;28;20113;-87
2021/10/31 06:24:45;;;;;;;16.13;13.40;;;10.60;85.70;;;;;;4970264;28;20110;-88
2021/10/31 06:27:12;;;;;;;16.60;12.43;;;10.60;85.70;;;;;;4973714;28;20043;-90
2021/10/31 06:29:39;;;;;;;17.80;12.02;;;10.60;85.70;;;;;;4971205;28;20380;-88
2021/10/31 06:32:06;;;;;;;15.90;12.15;;;10.50;85.70;;;;;;4959324;28;20051;-87
2021/10/31 06:34:33;;;;;;;16.83;12.65;;;10.60;85.70;;;;;;4962630;28;20431;-87
2021/10/31 06:37:00;;;;;;;13.40;11.95;;;10.50;85.70;;;;;;4967701;28;20054;-88
2021/10/31 06:39:27;;;;;;;17.35;12.75;;;10.50;85.70;;;;;;4970260;28;20062;-89
2021/10/31 06:41:54;;;;;;;15.40;12.00;;;10.60;85.70;;;;;;4956239;28;20571;-86
2021/10/31 06:44:20;;;;;;;14.50;11.68;;;10.50;85.70;;;;;;4969920;28;20527;-86
2021/10/31 06:46:47;;;;;;;16.75;11.52;;;10.60;85.70;;;;;;4969118;28;20455;-88
2021/10/31 06:49:14;;;;;;;17.50;10.88;;;10.50;85.70;;;;;;4966750;28;20050;-88
2021/10/31 06:51:41;;;;;;;14.82;10.60;;;10.50;85.60;;;;;;4969786;28;20449;-87
2021/10/31 06:54:09;;;;;;;11.95;9.98;;;10.50;85.60;;;;;;4972318;28;20054;-86
2021/10/31 06:56:37;;;;;;;13.23;9.90;;;10.50;85.60;;;;;;4970773;28;20055;-88
2021/10/31 06:59:03;;;;;;;13.23;9.60;;;10.50;85.60;;;;;;4968846;28;20047;-87
2021/10/31 07:01:30;;;;;;;11.95;9.55;;;10.50;85.60;;;;;;4968996;28;20046;-89
2021/10/31 07:03:57;;;;;;;12.15;9.27;;;10.50;85.60;;;;;;4966782;28;20070;-88
2021/10/31 07:06:27;;;;;;;11.27;9.55;;;10.50;85.60;;;;;;4971474;28;20105;-86
2021/10/31 07:08:55;;;;;;;11.10;9.15;;;10.50;85.60;;;;;;4971167;28;20511;-88
2021/10/31 07:11:22;;;;;;;15.05;10.05;;;10.50;85.60;;;;;;4970476;28;20074;-86
2021/10/31 07:13:49;;;;;;;11.05;9.07;;;10.50;85.70;;;;;;4969784;28;20047;-85
2021/10/31 07:16:16;;;;;;;11.65;9.20;;;10.50;85.60;;;;;;4966335;28;20058;-88
2021/10/31 07:18:43;;;;;;;14.80;9.05;;;10.50;85.70;;;;;;4969510;28;20052;-86
2021/10/31 07:21:10;;;;;;;12.52;8.80;;;10.50;85.70;;;;;;4973386;28;20407;-88
2021/10/31 07:23:37;;;;;;;14.40;9.13;;;10.50;85.70;;;;;;4970297;28;20439;-86
2021/10/31 07:26:07;;;;;;;13.10;9.13;;;10.50;85.70;;;;;;4966526;28;20046;-87
2021/10/31 07:28:35;;;;;;;11.38;8.48;;;10.50;85.70;;;;;;4968101;28;20488;-87
2021/10/31 07:31:04;;;;;;;11.45;8.90;;;10.50;85.80;;;;;;4965660;28;20416;-87
2021/10/31 07:33:31;;;;;;;11.20;8.63;;;10.60;85.80;;;;;;4956899;28;20054;-86
2021/10/31 07:35:58;;;;;;;16.05;9.75;;;10.60;85.80;;;;;;4970924;28;20109;-89
2021/10/31 07:38:24;;;;;;;14.10;8.60;;;10.50;85.90;;;;;;4969697;28;20050;-86
2021/10/31 07:40:52;;;;;;;14.52;8.98;;;10.60;85.90;;;;;;4966983;28;20145;-86
2021/10/31 07:43:19;;;;;;;14.98;8.68;;;10.60;86.00;;;;;;4972323;28;20043;-89
2021/10/31 07:45:46;;;;;;;15.73;8.80;;;10.60;86.00;;;;;;4968570;28;20102;-88
2021/10/31 07:48:14;;;;;;;14.70;8.77;;;10.70;86.00;;;;;;4971900;28;20082;-87
2021/10/31 07:50:41;;;;;;;15.85;8.40;;;10.70;86.10;;;;;;4955226;28;20048;-88
2021/10/31 07:53:10;;;;;;;13.10;8.23;;;10.70;86.10;;;;;;4955829;28;20751;-87
2021/10/31 07:55:38;;;;;;;16.17;8.75;;;10.60;86.10;;;;;;4955563;28;20059;-89
2021/10/31 07:58:07;;;;;;;10.38;7.90;;;10.80;86.20;;;;;;4955603;28;20047;-88
2021/10/31 08:00:35;;;;;;;12.23;8.48;;;10.80;86.20;;;;;;4957018;28;20456;-87
2021/10/31 08:03:03;;;;;;;13.38;8.50;;;10.80;86.30;;;;;;4970408;28;20488;-88
2021/10/31 08:05:30;;;;;;;14.73;8.98;;;10.80;86.30;;;;;;4969571;28;20055;-88
2021/10/31 08:07:58;;;;;;;14.88;8.40;;;10.90;86.40;;;;;;4965755;28;20054;-90
2021/10/31 08:10:26;;;;;;;13.57;8.23;;;10.90;86.40;;;;;;4964632;28;20500;-87
2021/10/31 08:12:53;;;;;;;13.25;8.25;;;10.90;86.40;;;;;;4970803;28;20054;-89
2021/10/31 08:15:20;;;;;;;15.70;9.07;;;10.90;86.40;;;;;;4971335;28;20042;-89
2021/10/31 08:17:47;;;;;;;9.15;7.65;;;11.00;86.50;;;;;;4954932;28;20121;-89
2021/10/31 08:20:14;;;;;;;12.38;8.18;;;11.00;86.50;;;;;;4958449;28;20468;-87
2021/10/31 08:22:41;;;;;;;15.27;7.90;;;11.00;86.60;;;;;;4962804;28;20047;-87
2021/10/31 08:25:08;;;;;;;13.63;7.20;;;11.10;86.60;;;;;;4969405;28;20118;-88
2021/10/31 08:27:36;;;;;;;17.20;7.70;;;11.10;86.70;;;;;;4966617;28;20534;-88
2021/10/31 08:30:05;;;;;;;12.85;7.00;;;11.10;86.70;;;;;;4955059;28;20055;-88
2021/10/31 08:32:39;;;;;;;10.82;6.72;;;11.20;86.70;;;;;;4960608;28;20055;-88
2021/10/31 08:35:06;;;;;;;12.85;7.75;;;11.20;86.70;;;;;;4968043;28;20511;-90
2021/10/31 08:37:33;;;;;;;11.05;7.28;;;11.20;86.70;;;;;;4966688;28;20109;-87
2021/10/31 08:40:00;;;;;;;10.20;6.70;;;11.30;86.70;;;;;;4968339;28;20050;-88
2021/10/31 08:42:27;;;;;;;10.93;6.95;;;11.30;86.70;;;;;;4969995;28;20050;-89
2021/10/31 08:44:55;;;;;;;16.02;7.00;;;11.30;86.70;;;;;;4954957;28;20063;-88
2021/10/31 08:47:22;;;;;;;11.45;6.40;;;11.40;86.70;;;;;;4961803;28;20470;-88
2021/10/31 08:49:49;;;;;;;11.02;5.78;;;11.40;86.70;;;;;;4963375;28;20055;-89
2021/10/31 08:52:16;;;;;;;14.27;5.93;;;11.40;86.70;;;;;;4959376;28;20051;-89
2021/10/31 08:54:43;;;;;;;13.15;5.60;;;11.40;86.70;;;;;;4957385;28;20047;-88
2021/10/31 08:57:10;;;;;;;10.32;5.22;;;11.40;86.60;;;;;;4955358;28;20106;-89
2021/10/31 08:59:36;;;;;;;11.20;5.40;;;11.40;86.60;;;;;;4958443;28;20054;-87
2021/10/31 09:02:05;;;;;;;9.35;5.13;;;11.50;86.60;;;;;;4970498;28;20043;-88
2021/10/31 09:04:33;;;;;;;11.70;5.03;;;11.50;86.60;;;;;;4971859;28;20042;-87
2021/10/31 09:06:59;;;;;;;10.77;4.63;;;11.60;86.60;;;;;;4969479;28;20046;-88
2021/10/31 09:09:26;;;;;;;10.25;4.35;;;11.60;86.60;;;;;;4956352;28;20066;-89
2021/10/31 09:11:53;;;;;;;8.52;4.20;;;11.60;86.60;;;;;;4956200;28;20064;-87
2021/10/31 09:14:20;;;;;;;13.52;4.30;;;11.60;86.50;;;;;;4958374;28;20054;-88
2021/10/31 09:16:48;;;;;;;9.80;4.68;;;11.60;86.50;;;;;;4965133;28;20054;-89
2021/10/31 09:19:17;;;;;;;9.13;4.15;;;11.70;86.50;;;;;;4970581;28;20053;-87
2021/10/31 09:21:46;;;;;;;9.75;4.35;;;11.70;86.50;;;;;;4968446;28;20109;-86
2021/10/31 09:24:13;;;;;;;9.27;3.85;;;11.70;86.40;;;;;;4953337;28;20138;-91
2021/10/31 09:26:40;;;;;;;12.88;3.92;;;11.70;86.40;;;;;;4957773;28;20114;-90
2021/10/31 09:29:08;;;;;;;13.00;4.60;;;11.70;86.40;;;;;;4959412;28;20050;-89
2021/10/31 09:31:35;;;;;;;10.88;3.75;;;11.80;86.40;;;;;;4965268;28;20057;-88
2021/10/31 09:34:02;;;;;;;8.68;3.95;;;11.80;86.40;;;;;;4962771;28;20415;-88
2021/10/31 09:36:29;;;;;;;9.07;3.45;;;11.80;86.30;;;;;;4954704;28;20051;-90
2021/10/31 09:38:56;;;;;;;6.60;3.35;;;11.80;86.30;;;;;;4954735;28;20047;-89
2021/10/31 09:41:25;;;;;;;8.82;3.40;;;11.90;86.30;;;;;;4972090;28;20054;-91
2021/10/31 09:43:59;;;;;;;11.68;3.30;;;11.80;86.30;;;;;;4959554;28;20138;-88
2021/10/31 09:46:26;;;;;;;10.30;4.05;;;11.90;86.30;;;;;;4958691;28;20138;-89
2021/10/31 09:48:53;;;;;;;8.50;3.50;;;11.90;86.30;;;;;;4960392;28;20122;-91
2021/10/31 09:51:24;;;;;;;8.73;3.33;;;11.90;86.30;;;;;;4968156;28;20081;-89
2021/10/31 09:53:52;;;;;;;9.32;3.47;;;11.90;86.30;;;;;;4956011;28;20059;-90
2021/10/31 09:56:19;;;;;;;8.82;3.58;;;11.90;86.30;;;;;;4970918;28;20050;-88
2021/10/31 09:58:46;;;;;;;7.55;3.65;;;11.90;86.30;;;;;;4959778;28;20094;-89
2021/10/31 10:04:27;;;;;;;7.18;3.53;;;12.00;86.40;;;;;;4964952;28;20066;-88
2021/10/31 10:06:56;;;;;;;8.43;3.47;;;12.00;86.40;;;;;;4957414;28;20109;-87
2021/10/31 10:09:24;;;;;;;10.65;3.33;;;12.00;86.40;;;;;;4956401;28;20109;-88
2021/10/31 10:11:52;;;;;;;7.60;3.50;;;12.00;86.30;;;;;;4972039;28;20451;-87
2021/10/31 10:14:30;;;;;;;11.02;3.58;;;12.10;86.40;;;;;;4956121;28;20051;-90
2021/10/31 10:17:06;;;;;;;11.50;3.75;;;12.10;86.40;;;;;;4957566;28;20047;-88
2021/10/31 10:19:36;;;;;;;11.95;3.60;;;12.10;86.40;;;;;;4958037;28;20098;-89
2021/10/31 10:22:07;;;;;;;6.93;2.90;;;12.10;86.40;;;;;;4966626;28;20080;-87
2021/10/31 10:24:40;;;;;;;8.07;3.25;;;12.20;86.40;;;;;;4956379;28;20047;-91
2021/10/31 10:27:08;;;;;;;8.00;3.20;;;12.20;86.40;;;;;;4954991;28;20055;-90
2021/10/31 10:29:38;;;;;;;10.85;3.28;;;12.20;86.40;;;;;;4971977;28;20055;-88
2021/10/31 10:32:13;;;;;;;10.82;3.10;;;12.20;86.50;;;;;;4969651;28;20061;-87
2021/10/31 10:34:48;;;;;;;8.90;3.40;;;12.30;86.50;;;;;;4963874;28;20700;-87
2021/10/31 10:37:20;;;;;;;12.32;3.00;;;12.30;86.50;;;;;;4963881;28;20475;-91
2021/10/31 10:39:54;;;;;;;8.35;2.55;;;12.30;86.50;;;;;;4959821;28;20047;-91
2021/10/31 10:42:26;;;;;;;10.15;2.97;;;12.40;86.60;;;;;;4955844;28;20519;-88
2021/10/31 10:44:56;;;;;;;7.95;3.35;;;12.40;86.60;;;;;;4970840;28;20096;-92
2021/10/31 10:47:24;;;;;;;9.52;3.88;;;12.40;86.60;;;;;;4956770;28;20048;-88
2021/10/31 10:49:53;;;;;;;12.70;4.20;;;12.40;86.60;;;;;;4957114;28;20058;-89
2021/10/31 10:52:33;;;;;;;10.50;4.18;;;12.50;86.60;;;;;;4959215;28;20051;-90
2021/10/31 10:55:02;;;;;;;13.10;4.28;;;12.50;86.60;;;;;;4967971;28;20419;-90
2021/10/31 10:57:33;;;;;;;13.45;3.75;;;12.50;86.60;;;;;;4973488;28;20054;-88
2021/10/31 11:00:12;;;;;;;16.83;5.70;;;12.60;86.60;;;;;;4990574;28;20042;-88
2021/10/31 11:02:39;;;;;;;11.35;3.20;;;12.70;86.50;;;;;;4961203;28;20051;-90
2021/10/31 11:05:09;;;;;;;11.65;2.97;;;12.70;86.50;;;;;;4967340;28;20054;-90
2021/10/31 11:07:40;;;;;;;11.05;3.65;;;12.70;86.40;;;;;;4971867;28;20055;-90
2021/10/31 11:10:16;;;;;;;8.13;2.55;;;12.80;86.30;;;;;;4971387;28;20046;-90
2021/10/31 11:12:45;;;;;;;8.63;2.75;;;12.80;86.20;;;;;;4968609;28;20134;-90
2021/10/31 11:15:16;;;;;;;9.07;2.53;;;12.90;86.10;;;;;;4973829;28;20039;-89
2021/10/31 11:17:46;;;;;;;7.53;2.15;;;12.90;86.00;;;;;;4975925;28;20054;-91
2021/10/31 11:20:16;;;;;;;9.13;2.10;;;12.90;85.90;;;;;;4960640;28;20051;-91
2021/10/31 11:22:53;;;;;;;10.90;2.08;;;12.90;85.80;;;;;;4960928;28;20500;-91
2021/10/31 11:25:23;;;;;;;5.38;2.17;;;13.00;85.70;;;;;;4960372;28;20089;-89
2021/10/31 11:27:52;;;;;;;5.97;1.83;;;13.00;85.60;;;;;;4973215;28;20050;-90
2021/10/31 11:30:21;;;;;;;5.35;1.98;;;13.00;85.50;;;;;;4972099;28;20054;-90
2021/10/31 11:32:50;;;;;;;6.65;2.08;;;13.10;85.30;;;;;;4975648;28;20082;-88
2021/10/31 11:35:19;;;;;;;7.70;1.77;;;13.10;85.20;;;;;;4961125;28;20043;-89
2021/10/31 11:38:03;;;;;;;;;;;13.10;85.10;;;;;;4962703;28;20543;-90
2021/10/31 11:41:02;;;;;;;3.58;1.98;;;13.10;85.00;;;;;;4960056;28;19938;-90
2021/10/31 11:43:34;;;;;;;8.75;2.60;;;13.20;84.90;;;;;;4973316;28;20066;-92
2021/10/31 11:46:03;;;;;;;5.97;2.40;;;13.20;84.70;;;;;;4970724;28;20058;-87
2021/10/31 11:48:34;;;;;;;9.55;2.40;;;13.20;84.60;;;;;;4969700;28;20134;-86
2021/10/31 11:51:01;;;;;;;6.38;2.33;;;13.30;84.60;;;;;;4957581;28;20508;-88
2021/10/31 11:53:42;;;;;;;7.53;2.13;;;13.20;84.50;;;;;;4959896;28;20046;-85
2021/10/31 11:56:24;;;;;;;6.90;2.35;;;13.30;84.50;;;;;;4958986;28;20455;-86
2021/10/31 11:59:19;;;;;;;5.80;1.92;;;13.30;84.40;;;;;;4959750;28;20054;-87
2021/10/31 12:01:46;;;;;;;5.85;2.05;;;13.30;84.40;;;;;;4959428;28;20471;-86
2021/10/31 12:04:45;;;;;;;7.22;2.20;;;13.30;84.40;;;;;;4959687;28;20420;-88
2021/10/31 12:07:39;;;;;;;4.65;1.73;;;13.30;84.40;;;;;;4959717;28;20050;-88
2021/10/31 12:10:28;;;;;;;3.80;1.67;;;13.30;84.40;;;;;;4957139;28;20047;-89
2021/10/31 12:13:22;;;;;;;7.63;1.98;;;13.30;84.40;;;;;;4970126;28;20047;-87
2021/10/31 12:16:09;;;;;;;4.82;1.52;;;13.30;84.50;;;;;;4957070;28;20049;-87
2021/10/31 12:18:44;;;;;;;10.15;3.05;;;13.30;84.50;;;;;;4972234;28;20072;-85
2021/10/31 12:21:32;;;;;;;6.47;1.90;;;13.30;84.50;;;;;;4955874;28;20102;-87
2021/10/31 12:24:03;;;;;;;5.60;2.08;;;13.30;84.50;;;;;;4970645;28;20059;-87
2021/10/31 12:26:54;;;;;;;5.85;1.92;;;13.30;84.60;;;;;;4978991;28;20050;-85
2021/10/31 12:29:26;;;;;;;7.03;2.08;;;13.30;84.60;;;;;;4961078;28;20051;-86
2021/10/31 12:31:57;;;;;;;5.43;2.33;;;13.30;84.70;;;;;;4959073;28;20051;-88
2021/10/31 12:34:45;;;;;;;5.55;2.10;;;13.30;84.80;;;;;;4959148;28;20047;-89
2021/10/31 12:37:21;;;;;;;5.53;2.00;;;13.30;84.90;;;;;;4958795;28;20467;-88
2021/10/31 12:39:48;;;;;;;4.70;1.95;;;13.30;85.00;;;;;;4959769;28;20582;-88
2021/10/31 12:42:19;;;;;;;3.88;1.90;;;13.30;85.10;;;;;;4954882;28;20424;-88
2021/10/31 12:45:00;;;;;;;4.88;2.08;;;13.30;85.20;;;;;;4970239;28;20066;-87
2021/10/31 12:47:42;;;;;;;5.30;2.08;;;13.40;85.30;;;;;;4972426;28;20058;-87
2021/10/31 12:50:17;;;;;;;4.70;2.17;;;13.40;85.40;;;;;;4959288;28;20125;-88
2021/10/31 12:52:45;;;;;;;4.97;2.33;;;13.40;85.50;;;;;;4960122;28;20464;-86
2021/10/31 12:55:15;;;;;;;7.32;2.80;;;13.40;85.50;;;;;;4961539;28;20058;-88
2021/10/31 12:57:53;;;;;;;6.07;2.60;;;13.40;85.60;;;;;;4969648;28;20054;-86